createdAt,value
2022-09-20T00:01:36.886Z,37.21
2022-09-20T00:04:05.018Z,36.95
2022-09-20T00:06:33.964Z,36.76
2022-09-20T00:09:01.559Z,36.96
2022-09-20T00:11:30.901Z,36.60
2022-09-20T00:14:00.864Z,36.65
2022-09-20T00:16:31.794Z,37.06
2022-09-20T00:19:01.247Z,37.00
2022-09-20T00:21:30.791Z,37.09
2022-09-20T00:23:58.738Z,36.63
2022-09-20T00:26:28.346Z,37.21
2022-09-20T00:28:57.472Z,36.82
2022-09-20T00:31:24.933Z,36.72
2022-09-20T00:33:56.223Z,36.61
2022-09-20T00:36:23.739Z,36.95
2022-09-20T00:38:55.872Z,37.39
2022-09-20T00:41:23.297Z,36.45
2022-09-20T00:43:50.759Z,37.07
2022-09-20T00:46:23.677Z,36.73
2022-09-20T00:48:56.104Z,37.18
2022-09-20T00:51:30.000Z,37.11
2022-09-20T00:54:01.069Z,37.14
2022-09-20T00:56:31.983Z,37.10
2022-09-20T00:59:06.595Z,36.72
2022-09-20T01:01:34.227Z,37.35
2022-09-20T01:04:02.771Z,37.39
2022-09-20T01:06:34.027Z,37.34
2022-09-20T01:09:05.509Z,36.81
2022-09-20T01:11:35.384Z,36.97
2022-09-20T01:14:03.097Z,36.92
2022-09-20T01:16:32.195Z,37.27
2022-09-20T01:19:05.381Z,37.36
2022-09-20T01:21:34.630Z,36.57
2022-09-20T01:24:13.274Z,36.86
2022-09-20T01:27:13.370Z,36.93
2022-09-20T01:30:03.586Z,37.05
2022-09-20T01:32:42.766Z,36.85
2022-09-20T01:35:11.258Z,37.09
2022-09-20T01:37:50.451Z,36.72
2022-09-20T01:40:24.729Z,36.35
2022-09-20T01:43:02.792Z,37.10
2022-09-20T01:45:32.737Z,36.90
2022-09-20T01:48:12.440Z,36.57
2022-09-20T01:50:49.566Z,36.89
2022-09-20T01:53:46.346Z,36.16
2022-09-20T01:57:07.983Z,36.62
2022-09-20T01:59:57.963Z,36.74
2022-09-20T02:02:49.622Z,36.69
2022-09-20T02:05:38.606Z,36.96
2022-09-20T02:08:22.482Z,36.51
2022-09-20T02:11:07.039Z,36.06
2022-09-20T02:13:50.654Z,35.80
2022-09-20T02:16:36.090Z,35.45
2022-09-20T02:19:27.981Z,34.47
2022-09-20T02:22:10.870Z,34.44
2022-09-20T02:24:46.629Z,34.89
2022-09-20T02:27:23.744Z,35.18
2022-09-20T02:30:03.886Z,35.36
2022-09-20T02:32:59.111Z,35.82
2022-09-20T02:35:40.916Z,35.62
2022-09-20T02:38:29.334Z,35.69
2022-09-20T02:41:29.533Z,35.29
2022-09-20T02:44:04.789Z,34.81
2022-09-20T02:46:41.316Z,35.73
2022-09-20T02:49:15.399Z,35.67
2022-09-20T02:51:52.266Z,35.59
2022-09-20T02:54:34.095Z,35.16
2022-09-20T02:57:12.312Z,34.73
2022-09-20T02:59:46.885Z,34.87
2022-09-20T03:02:25.143Z,35.12
2022-09-20T03:05:06.061Z,35.36
2022-09-20T03:07:46.380Z,35.32
2022-09-20T03:10:21.761Z,36.33
2022-09-20T03:13:07.895Z,37.18
2022-09-20T03:15:49.002Z,38.13
2022-09-20T03:18:18.886Z,38.07
2022-09-20T03:20:57.954Z,37.82
2022-09-20T03:23:41.287Z,37.75
2022-09-20T03:26:18.220Z,38.35
2022-09-20T03:28:58.042Z,38.11
2022-09-20T03:31:48.359Z,38.90
2022-09-20T03:34:30.047Z,37.47
2022-09-20T03:37:13.895Z,38.02
2022-09-20T03:40:03.731Z,36.99
2022-09-20T03:42:31.898Z,38.92
2022-09-20T03:45:29.124Z,38.35
2022-09-20T03:48:28.712Z,39.17
2022-09-20T03:51:10.165Z,37.74
2022-09-20T03:53:58.109Z,37.28
2022-09-20T03:57:03.840Z,37.87
2022-09-20T03:59:50.851Z,37.58
2022-09-20T04:02:33.447Z,37.68
2022-09-20T04:05:06.382Z,38.04
2022-09-20T04:07:45.749Z,37.78
2022-09-20T04:10:30.998Z,37.43
2022-09-20T04:13:13.673Z,37.66
2022-09-20T04:15:54.571Z,37.52
2022-09-20T04:18:29.167Z,36.98
2022-09-20T04:21:04.136Z,36.65
2022-09-20T04:23:43.017Z,35.88
2022-09-20T04:26:10.970Z,36.51
2022-09-20T04:28:46.315Z,35.75
2022-09-20T04:31:24.629Z,36.22
2022-09-20T04:33:57.102Z,37.21
2022-09-20T04:36:55.878Z,35.78
2022-09-20T04:39:34.629Z,36.26
2022-09-20T04:42:53.746Z,35.65
2022-09-20T04:46:04.982Z,35.75
2022-09-20T04:49:08.269Z,35.29
2022-09-20T04:52:04.295Z,36.13
2022-09-20T04:55:05.014Z,34.58
2022-09-20T04:58:11.355Z,34.70
2022-09-20T05:00:57.720Z,34.38
2022-09-20T05:03:45.169Z,35.27
2022-09-20T05:06:34.481Z,35.54
2022-09-20T05:09:37.178Z,34.82
2022-09-20T05:12:24.369Z,34.23
2022-09-20T05:15:14.601Z,34.10
2022-09-20T05:18:07.606Z,33.87
2022-09-20T05:20:52.151Z,33.79
2022-09-20T05:24:00.094Z,33.36
2022-09-20T05:26:42.839Z,33.66
2022-09-20T05:29:18.430Z,33.14
2022-09-20T05:31:53.352Z,32.96
2022-09-20T05:34:27.265Z,32.77
2022-09-20T05:37:02.065Z,32.52
2022-09-20T05:39:37.175Z,33.15
2022-09-20T05:42:18.687Z,32.84
2022-09-20T05:44:56.636Z,32.00
2022-09-20T05:47:32.674Z,32.31
2022-09-20T05:50:16.298Z,32.37
2022-09-20T05:52:52.978Z,32.54
2022-09-20T05:55:30.966Z,32.00
2022-09-20T05:58:15.158Z,32.68
2022-09-20T06:00:48.894Z,31.62
2022-09-20T06:03:26.718Z,31.81
2022-09-20T06:06:02.980Z,32.25
2022-09-20T06:09:10.154Z,31.74
2022-09-20T06:12:05.300Z,31.99
2022-09-20T06:14:44.028Z,31.84
2022-09-20T06:17:21.923Z,32.03
2022-09-20T06:19:59.579Z,31.42
2022-09-20T06:22:29.980Z,31.48
2022-09-20T06:25:03.058Z,31.26
2022-09-20T06:27:35.082Z,30.55
2022-09-20T06:30:08.263Z,31.61
2022-09-20T06:32:35.725Z,31.34
2022-09-20T06:35:04.975Z,31.10
2022-09-20T06:37:44.360Z,31.02
2022-09-20T06:40:24.281Z,31.16
2022-09-20T06:42:51.685Z,30.29
2022-09-20T06:45:20.646Z,30.81
2022-09-20T06:47:48.178Z,30.42
2022-09-20T06:50:16.321Z,29.72
2022-09-20T06:52:44.602Z,30.51
2022-09-20T06:55:18.192Z,30.29
2022-09-20T06:57:45.699Z,29.80
2022-09-20T07:00:15.154Z,29.74
2022-09-20T07:02:44.014Z,29.23
2022-09-20T07:05:15.238Z,28.86
2022-09-20T07:07:43.467Z,29.02
2022-09-20T07:10:11.119Z,29.55
2022-09-20T07:12:38.569Z,28.64
2022-09-20T07:15:07.225Z,29.14
2022-09-20T07:17:34.887Z,28.57
2022-09-20T07:20:04.059Z,28.54
2022-09-20T07:22:31.699Z,29.45
2022-09-20T07:24:59.742Z,28.52
2022-09-20T07:27:29.339Z,28.57
2022-09-20T07:29:57.393Z,28.20
2022-09-20T07:32:24.814Z,28.71
2022-09-20T07:34:52.299Z,27.68
2022-09-20T07:37:21.100Z,27.96
2022-09-20T07:39:48.645Z,28.03
2022-09-20T07:42:16.302Z,27.98
2022-09-20T07:44:43.703Z,28.29
2022-09-20T07:47:11.284Z,27.68
2022-09-20T07:49:38.849Z,28.15
2022-09-20T07:52:06.719Z,27.94
2022-09-20T07:54:35.578Z,27.33
2022-09-20T07:57:03.047Z,27.41
2022-09-20T07:59:30.486Z,27.26
2022-09-20T08:01:57.952Z,28.11
2022-09-20T08:04:26.054Z,27.75
2022-09-20T08:06:53.999Z,27.37
2022-09-20T08:09:21.333Z,27.41
2022-09-20T08:11:50.171Z,27.21
2022-09-20T08:14:18.485Z,28.96
2022-09-20T08:16:47.908Z,27.88
2022-09-20T08:19:17.114Z,27.74
2022-09-20T08:21:45.162Z,28.09
2022-09-20T08:24:13.340Z,28.45
2022-09-20T08:26:40.858Z,27.41
2022-09-20T08:29:10.547Z,26.35
2022-09-20T08:31:38.660Z,27.28
2022-09-20T08:34:07.172Z,28.04
2022-09-20T08:36:37.108Z,27.90
2022-09-20T08:41:56.214Z,27.14
2022-09-20T08:44:29.564Z,26.83
2022-09-20T08:47:06.805Z,27.21
2022-09-20T08:49:35.007Z,26.58
2022-09-20T08:52:04.322Z,27.91
2022-09-20T08:54:34.720Z,27.52
2022-09-20T08:57:04.317Z,27.27
2022-09-20T08:59:33.478Z,26.48
2022-09-20T09:02:01.495Z,27.86
2022-09-20T09:04:35.699Z,26.80
2022-09-20T09:07:03.748Z,25.97
2022-09-20T09:09:37.550Z,26.46
2022-09-20T09:12:05.852Z,25.99
2022-09-20T09:14:35.873Z,26.05
2022-09-20T09:17:03.390Z,25.98
2022-09-20T09:19:33.937Z,25.71
2022-09-20T09:22:03.967Z,26.02
2022-09-20T09:24:31.225Z,25.57
2022-09-20T09:27:07.832Z,25.34
2022-09-20T09:29:48.511Z,25.13
2022-09-20T09:32:22.135Z,24.99
2022-09-20T09:34:49.821Z,25.06
2022-09-20T09:37:28.609Z,25.21
2022-09-20T09:40:14.978Z,25.43
2022-09-20T09:42:49.928Z,24.71
2022-09-20T09:45:31.346Z,24.93
2022-09-20T09:48:00.673Z,24.49
2022-09-20T09:50:31.051Z,24.54
2022-09-20T09:53:10.222Z,24.04
2022-09-20T09:56:07.960Z,24.69
2022-09-20T09:59:02.216Z,24.61
2022-09-20T10:01:39.319Z,24.96
2022-09-20T10:04:16.070Z,24.91
2022-09-20T10:06:52.446Z,24.42
2022-09-20T10:09:34.265Z,24.12
2022-09-20T10:12:14.439Z,24.32
2022-09-20T10:14:57.639Z,23.96
2022-09-20T10:17:52.039Z,24.64
2022-09-20T10:20:42.896Z,23.91
2022-09-20T10:23:58.703Z,23.91
2022-09-20T10:26:32.017Z,24.03
2022-09-20T10:29:10.063Z,23.78
2022-09-20T10:31:48.383Z,23.51
2022-09-20T10:34:46.421Z,23.35
2022-09-20T10:37:19.314Z,23.61
2022-09-20T10:39:53.645Z,24.16
2022-09-20T10:42:37.968Z,23.40
2022-09-20T10:45:36.019Z,23.87
2022-09-20T10:48:05.970Z,23.29
2022-09-20T10:50:42.558Z,23.42
2022-09-20T10:53:29.234Z,23.13
2022-09-20T10:56:09.618Z,23.00
2022-09-20T10:59:03.058Z,22.82
2022-09-20T11:01:36.772Z,23.12
2022-09-20T11:04:32.505Z,23.04
2022-09-20T11:07:11.832Z,23.63
2022-09-20T11:09:43.265Z,23.31
2022-09-20T11:12:15.362Z,23.33
2022-09-20T11:14:49.414Z,24.01
2022-09-20T11:17:23.328Z,23.16
2022-09-20T11:19:59.221Z,23.91
2022-09-20T11:22:34.868Z,23.41
2022-09-20T11:25:14.064Z,23.10
2022-09-20T11:27:48.199Z,23.31
2022-09-20T11:30:19.176Z,22.77
2022-09-20T11:32:51.526Z,23.37
2022-09-20T11:35:29.319Z,23.48
2022-09-20T11:38:09.842Z,24.21
2022-09-20T11:40:43.382Z,22.93
2022-09-20T11:43:13.880Z,22.50
2022-09-20T11:45:43.511Z,23.15
2022-09-20T11:48:15.034Z,22.50
2022-09-20T11:51:10.260Z,23.60
2022-09-20T11:53:55.819Z,22.62
2022-09-20T11:56:25.850Z,22.61
2022-09-20T11:58:55.823Z,22.43
2022-09-20T12:01:28.730Z,21.96
2022-09-20T12:04:20.534Z,22.37
2022-09-20T12:06:47.378Z,22.61
2022-09-20T12:09:26.433Z,22.15
2022-09-20T12:11:54.952Z,23.24
2022-09-20T12:14:25.378Z,23.26
2022-09-20T12:16:53.706Z,22.30
2022-09-20T12:19:37.427Z,21.89
2022-09-20T12:22:27.575Z,22.66
2022-09-20T12:25:27.500Z,22.02
2022-09-20T12:27:59.463Z,21.78
2022-09-20T12:30:27.082Z,21.66
2022-09-20T12:32:56.940Z,21.42
2022-09-20T12:36:12.316Z,21.26
2022-09-20T12:38:47.674Z,21.15
2022-09-20T12:41:27.539Z,21.26
2022-09-20T12:44:01.748Z,21.05
2022-09-20T12:46:40.596Z,21.77
2022-09-20T12:49:26.663Z,21.22
2022-09-20T12:51:54.235Z,22.18
2022-09-20T12:54:21.770Z,21.15
2022-09-20T12:56:49.707Z,21.18
2022-09-20T12:59:25.626Z,21.29
2022-09-20T13:01:53.131Z,21.40
2022-09-20T13:04:54.376Z,21.22
2022-09-20T13:07:52.345Z,21.31
2022-09-20T13:10:34.195Z,21.17
2022-09-20T13:13:11.315Z,21.26
2022-09-20T13:15:41.004Z,21.03
2022-09-20T13:18:12.629Z,21.17
2022-09-20T13:20:42.843Z,21.45
2022-09-20T13:23:19.518Z,21.08
2022-09-20T13:25:48.582Z,21.45
2022-09-20T13:28:26.900Z,21.44
2022-09-20T13:31:26.351Z,21.55
2022-09-20T13:33:54.624Z,21.21
2022-09-20T13:36:28.231Z,21.20
2022-09-20T13:38:57.487Z,21.23
2022-09-20T13:41:28.751Z,20.75
2022-09-20T13:43:56.788Z,21.37
2022-09-20T13:46:30.665Z,21.24
2022-09-20T13:49:15.177Z,21.00
2022-09-20T13:51:42.832Z,21.25
2022-09-20T13:54:25.623Z,21.29
2022-09-20T13:56:55.006Z,21.76
2022-09-20T13:59:23.558Z,21.64
2022-09-20T14:01:54.625Z,21.43
2022-09-20T14:04:24.524Z,21.53
2022-09-20T14:06:55.263Z,22.15
2022-09-20T14:09:28.555Z,21.81
2022-09-20T14:11:56.709Z,22.98
2022-09-20T14:14:25.406Z,23.18
2022-09-20T14:16:56.291Z,22.52
2022-09-20T14:19:29.035Z,22.97
2022-09-20T14:21:57.015Z,23.26
2022-09-20T14:24:29.815Z,24.17
2022-09-20T14:27:03.764Z,23.04
2022-09-20T14:29:39.630Z,24.48
2022-09-20T14:32:29.602Z,24.42
2022-09-20T14:35:03.317Z,23.65
2022-09-20T14:37:32.957Z,23.79
2022-09-20T14:40:03.130Z,23.13
2022-09-20T14:42:35.340Z,23.35
2022-09-20T14:45:04.127Z,23.51
2022-09-20T14:47:39.388Z,23.58
2022-09-20T14:50:24.858Z,22.97
2022-09-20T14:53:18.941Z,22.28
2022-09-20T14:56:00.564Z,22.23
2022-09-20T14:58:28.105Z,22.71
2022-09-20T15:00:58.553Z,23.37
2022-09-20T15:03:31.032Z,24.07
2022-09-20T15:05:58.803Z,24.82
2022-09-20T15:08:26.536Z,24.29
2022-09-20T15:10:53.908Z,24.76
2022-09-20T15:13:21.399Z,26.32
2022-09-20T15:15:51.202Z,24.51
2022-09-20T15:18:21.735Z,22.74
2022-09-20T15:20:51.183Z,23.45
2022-09-20T15:23:18.711Z,25.26
2022-09-20T15:25:46.135Z,24.44
2022-09-20T15:28:14.790Z,25.13
2022-09-20T15:30:42.206Z,24.42
2022-09-20T15:33:10.459Z,25.37
2022-09-20T15:35:38.436Z,25.68
2022-09-20T15:38:07.925Z,26.13
2022-09-20T15:40:36.120Z,26.87
2022-09-20T15:43:03.654Z,28.22
2022-09-20T15:45:31.196Z,27.79
2022-09-20T15:47:58.647Z,27.85
2022-09-20T15:50:26.107Z,27.42
2022-09-20T15:52:55.816Z,26.50
2022-09-20T15:55:28.737Z,25.82
2022-09-20T15:57:59.237Z,26.95
2022-09-20T16:00:26.819Z,28.50
2022-09-20T16:02:54.300Z,27.19
2022-09-20T16:05:21.912Z,28.48
2022-09-20T16:07:49.437Z,28.29
2022-09-20T16:10:16.842Z,28.08
2022-09-20T16:12:45.802Z,28.05
2022-09-20T16:15:13.280Z,28.19
2022-09-20T16:17:40.677Z,27.26
2022-09-20T16:20:08.993Z,27.60
2022-09-20T16:22:36.480Z,27.59
2022-09-20T16:25:04.287Z,27.95
2022-09-20T16:27:31.987Z,26.72
2022-09-20T16:30:01.307Z,27.35
2022-09-20T16:32:28.766Z,27.13
2022-09-20T16:34:56.654Z,27.47
2022-09-20T16:37:24.040Z,26.95
2022-09-20T16:39:51.453Z,27.04
2022-09-20T16:42:18.930Z,26.66
2022-09-20T16:44:46.298Z,26.68
2022-09-20T16:47:15.928Z,26.29
2022-09-20T16:49:43.510Z,26.59
2022-09-20T16:52:11.744Z,26.93
2022-09-20T16:54:39.357Z,26.42
2022-09-20T16:57:06.887Z,26.97
2022-09-20T16:59:34.286Z,27.63
2022-09-20T17:02:01.736Z,27.00
2022-09-20T17:04:30.649Z,27.32
2022-09-20T17:06:58.048Z,26.99
2022-09-20T17:09:25.575Z,26.52
2022-09-20T17:11:53.004Z,27.00
2022-09-20T17:14:21.030Z,26.74
2022-09-20T17:16:48.548Z,27.79
2022-09-20T17:19:17.963Z,27.35
2022-09-20T17:21:48.990Z,27.57
2022-09-20T17:24:17.781Z,28.53
2022-09-20T17:26:45.719Z,28.57
2022-09-20T17:29:14.665Z,27.64
2022-09-20T17:31:43.854Z,27.85
2022-09-20T17:34:12.359Z,28.25
2022-09-20T17:36:41.007Z,27.57
2022-09-20T17:39:10.948Z,27.52
2022-09-20T17:41:39.381Z,27.69
2022-09-20T17:44:06.850Z,27.86
2022-09-20T17:46:35.495Z,27.31
2022-09-20T17:49:05.175Z,27.37
2022-09-20T17:51:33.274Z,28.06
2022-09-20T17:54:01.258Z,28.01
2022-09-20T17:56:30.670Z,27.96
2022-09-20T17:58:59.195Z,28.03
2022-09-20T18:01:28.143Z,27.55
2022-09-20T18:03:57.238Z,28.33
2022-09-20T18:06:26.117Z,28.18
2022-09-20T18:08:55.564Z,27.64
2022-09-20T18:11:26.897Z,28.19
2022-09-20T18:13:55.815Z,27.65
2022-09-20T18:16:23.392Z,28.34
2022-09-20T18:18:51.187Z,28.76
2022-09-20T18:21:19.880Z,28.44
2022-09-20T18:23:48.266Z,28.44
2022-09-20T18:26:17.135Z,28.48
2022-09-20T18:28:48.697Z,28.54
2022-09-20T18:31:18.265Z,28.87
2022-09-20T18:33:45.774Z,28.51
2022-09-20T18:36:13.472Z,29.28
2022-09-20T18:38:44.515Z,29.33
2022-09-20T18:41:12.516Z,29.24
2022-09-20T18:43:40.637Z,28.95
2022-09-20T18:46:08.217Z,28.57
2022-09-20T18:48:37.075Z,28.67
2022-09-20T18:51:05.359Z,29.16
2022-09-20T18:53:34.115Z,29.50
2022-09-20T18:56:06.842Z,29.52
2022-09-20T18:58:35.457Z,28.50
2022-09-20T19:01:22.604Z,28.98
2022-09-20T19:04:01.006Z,28.59
2022-09-20T19:06:34.006Z,28.98
2022-09-20T19:09:07.121Z,28.25
2022-09-20T19:11:39.488Z,29.07
2022-09-20T19:14:13.173Z,28.36
2022-09-20T19:16:40.900Z,28.64
2022-09-20T19:19:33.515Z,28.29
2022-09-20T19:22:15.093Z,28.49
2022-09-20T19:25:09.617Z,28.53
2022-09-20T19:27:37.463Z,28.77
2022-09-20T19:30:05.929Z,28.98
2022-09-20T19:32:34.327Z,28.42
2022-09-20T19:35:04.111Z,28.26
2022-09-20T19:37:35.851Z,27.69
2022-09-20T19:40:28.247Z,28.90
2022-09-20T19:43:08.741Z,28.53
2022-09-20T19:45:47.126Z,28.14
2022-09-20T19:48:20.955Z,27.93
2022-09-20T19:50:52.144Z,27.93
2022-09-20T19:53:21.787Z,28.62
2022-09-20T19:55:54.109Z,28.25
2022-09-20T19:58:22.118Z,27.94
2022-09-20T20:00:50.185Z,28.57
2022-09-20T20:03:20.706Z,28.70
2022-09-20T20:06:02.419Z,28.93
2022-09-20T20:08:38.177Z,28.76
2022-09-20T20:11:13.939Z,28.96
2022-09-20T20:13:49.615Z,28.01
2022-09-20T20:16:23.535Z,28.46
2022-09-20T20:19:02.896Z,29.20
2022-09-20T20:21:42.490Z,28.90
2022-09-20T20:24:15.822Z,28.59
2022-09-20T20:26:43.173Z,28.56
2022-09-20T20:29:10.709Z,28.53
2022-09-20T20:31:38.304Z,28.21
2022-09-20T20:34:05.675Z,28.83
2022-09-20T20:36:34.614Z,28.74
2022-09-20T20:39:02.026Z,28.83
2022-09-20T20:41:29.420Z,27.89
2022-09-20T20:43:56.783Z,28.22
2022-09-20T20:46:24.514Z,28.08
2022-09-20T20:48:51.985Z,28.13
2022-09-20T20:51:21.840Z,28.44
2022-09-20T20:53:51.971Z,28.74
2022-09-20T20:56:21.452Z,29.29
2022-09-20T20:58:49.666Z,28.72
2022-09-20T21:01:19.427Z,29.21
2022-09-20T21:03:48.386Z,28.67
2022-09-20T21:06:16.418Z,28.62
2022-09-20T21:08:48.981Z,28.48
2022-09-20T21:11:20.878Z,29.10
2022-09-20T21:13:48.246Z,29.20
2022-09-20T21:16:17.712Z,28.94
2022-09-20T21:18:46.594Z,28.72
2022-09-20T21:21:16.577Z,28.76
2022-09-20T21:23:44.525Z,29.44
2022-09-20T21:26:13.355Z,29.03
2022-09-20T21:28:43.714Z,30.17
2022-09-20T21:31:12.590Z,29.79
2022-09-20T21:33:41.658Z,29.32
2022-09-20T21:36:11.209Z,30.32
2022-09-20T21:38:39.304Z,29.46
2022-09-20T21:41:08.946Z,29.63
2022-09-20T21:43:36.917Z,30.35
2022-09-20T21:46:05.911Z,30.34
2022-09-20T21:48:33.282Z,30.61
2022-09-20T21:51:02.295Z,30.02
2022-09-20T21:53:31.846Z,30.07
2022-09-20T21:56:00.258Z,28.90
2022-09-20T21:58:28.046Z,28.17
2022-09-20T22:01:03.686Z,28.73
2022-09-20T22:03:34.271Z,27.93
2022-09-20T22:06:13.110Z,27.76
2022-09-20T22:08:42.568Z,28.42
2022-09-20T22:11:14.636Z,28.00
2022-09-20T22:13:43.481Z,28.27
2022-09-20T22:16:12.742Z,27.51
2022-09-20T22:18:43.146Z,28.05
2022-09-20T22:21:12.270Z,28.45
2022-09-20T22:23:40.184Z,28.09
2022-09-20T22:26:10.123Z,27.85
2022-09-20T22:28:37.844Z,27.90
2022-09-20T22:31:07.972Z,27.83
2022-09-20T22:33:35.879Z,27.53
2022-09-20T22:36:07.774Z,27.85
2022-09-20T22:38:35.121Z,27.71
2022-09-20T22:41:02.529Z,28.12
2022-09-20T22:43:32.309Z,28.08
2022-09-20T22:46:03.305Z,27.62
2022-09-20T22:48:30.966Z,28.55
2022-09-20T22:51:01.907Z,28.47
2022-09-20T22:53:31.565Z,27.99
2022-09-20T22:56:09.422Z,28.51
2022-09-20T22:58:38.135Z,27.56
2022-09-20T23:01:07.212Z,28.72
2022-09-20T23:03:35.123Z,28.16
2022-09-20T23:06:02.773Z,28.29
2022-09-20T23:08:33.129Z,29.03
2022-09-20T23:11:01.903Z,28.29
2022-09-20T23:13:29.821Z,28.71
2022-09-20T23:15:57.319Z,28.88
2022-09-20T23:18:25.068Z,28.71
2022-09-20T23:21:00.742Z,29.39
2022-09-20T23:23:29.426Z,29.48
2022-09-20T23:26:03.862Z,29.45
2022-09-20T23:28:31.240Z,29.84
2022-09-20T23:31:04.450Z,30.03
2022-09-20T23:33:32.395Z,30.65
2022-09-20T23:36:00.528Z,30.31
2022-09-20T23:38:28.378Z,30.63
2022-09-20T23:41:01.622Z,31.18
2022-09-20T23:43:29.150Z,30.88
2022-09-20T23:45:57.174Z,30.66
2022-09-20T23:48:24.587Z,30.81
2022-09-20T23:50:52.770Z,31.58
2022-09-20T23:53:20.232Z,31.48
2022-09-20T23:55:47.650Z,31.23
2022-09-20T23:58:16.919Z,31.94
